sensor_id;sensor_type;location;lat;lon;timestamp;temperature;humidity
41592;DHT22;28026;48.562;14.440;2023-07-31T00:01:18;15.80;99.90
41592;DHT22;28026;48.562;14.440;2023-07-31T00:03:49;15.80;99.90
41592;DHT22;28026;48.562;14.440;2023-07-31T00:06:20;15.70;99.90
41592;DHT22;28026;48.562;14.440;2023-07-31T00:08:51;15.70;99.90
41592;DHT22;28026;48.562;14.440;2023-07-31T00:11:22;15.70;99.90
41592;DHT22;28026;48.562;14.440;2023-07-31T00:13:53;15.60;99.90
41592;DHT22;28026;48.562;14.440;2023-07-31T00:16:24;15.50;99.90
41592;DHT22;28026;48.562;14.440;2023-07-31T00:18:55;15.50;99.90
41592;DHT22;28026;48.562;14.440;2023-07-31T00:21:26;15.40;99.90
41592;DHT22;28026;48.562;14.440;2023-07-31T00:23:57;15.40;99.90
41592;DHT22;28026;48.562;14.440;2023-07-31T00:26:28;15.50;99.90
41592;DHT22;28026;48.562;14.440;2023-07-31T00:28:59;15.40;99.90
41592;DHT22;28026;48.562;14.440;2023-07-31T00:31:29;15.40;99.90
41592;DHT22;28026;48.562;14.440;2023-07-31T00:34:00;15.40;99.90
41592;DHT22;28026;48.562;14.440;2023-07-31T00:36:31;15.30;99.90
41592;DHT22;28026;48.562;14.440;2023-07-31T00:39:02;15.30;99.90
41592;DHT22;28026;48.562;14.440;2023-07-31T00:41:34;15.20;99.90
41592;DHT22;28026;48.562;14.440;2023-07-31T00:44:04;15.30;99.90
41592;DHT22;28026;48.562;14.440;2023-07-31T00:46:35;15.30;99.90
41592;DHT22;28026;48.562;14.440;2023-07-31T00:49:07;15.30;99.90
41592;DHT22;28026;48.562;14.440;2023-07-31T00:51:39;15.20;99.90
41592;DHT22;28026;48.562;14.440;2023-07-31T00:54:11;15.20;99.90
41592;DHT22;28026;48.562;14.440;2023-07-31T00:56:42;15.10;99.90
41592;DHT22;28026;48.562;14.440;2023-07-31T00:59:16;15.00;99.90
41592;DHT22;28026;48.562;14.440;2023-07-31T01:01:49;14.80;99.90
41592;DHT22;28026;48.562;14.440;2023-07-31T01:04:20;14.80;99.90
41592;DHT22;28026;48.562;14.440;2023-07-31T01:09:50;14.60;99.90
41592;DHT22;28026;48.562;14.440;2023-07-31T01:12:27;14.60;99.90
41592;DHT22;28026;48.562;14.440;2023-07-31T01:17:37;14.30;99.90
41592;DHT22;28026;48.562;14.440;2023-07-31T01:20:17;14.20;99.90
41592;DHT22;28026;48.562;14.440;2023-07-31T01:23:10;14.00;99.90
41592;DHT22;28026;48.562;14.440;2023-07-31T01:28:55;14.20;99.90
41592;DHT22;28026;48.562;14.440;2023-07-31T01:32:02;14.10;99.90
41592;DHT22;28026;48.562;14.440;2023-07-31T01:34:35;14.10;99.90
41592;DHT22;28026;48.562;14.440;2023-07-31T01:37:07;14.00;99.90
41592;DHT22;28026;48.562;14.440;2023-07-31T01:39:38;13.90;99.90
41592;DHT22;28026;48.562;14.440;2023-07-31T01:42:09;13.90;99.90
41592;DHT22;28026;48.562;14.440;2023-07-31T01:44:40;13.90;99.90
41592;DHT22;28026;48.562;14.440;2023-07-31T01:47:11;14.00;99.90
41592;DHT22;28026;48.562;14.440;2023-07-31T01:49:42;14.10;99.90
41592;DHT22;28026;48.562;14.440;2023-07-31T01:52:13;14.20;99.90
41592;DHT22;28026;48.562;14.440;2023-07-31T01:54:43;14.10;99.90
41592;DHT22;28026;48.562;14.440;2023-07-31T01:57:14;13.90;99.90
41592;DHT22;28026;48.562;14.440;2023-07-31T01:59:45;13.80;99.90
41592;DHT22;28026;48.562;14.440;2023-07-31T02:02:16;13.80;99.90
41592;DHT22;28026;48.562;14.440;2023-07-31T02:04:47;13.80;99.90
41592;DHT22;28026;48.562;14.440;2023-07-31T02:07:18;13.70;99.90
41592;DHT22;28026;48.562;14.440;2023-07-31T02:09:48;13.50;99.90
41592;DHT22;28026;48.562;14.440;2023-07-31T02:12:19;13.50;99.90
41592;DHT22;28026;48.562;14.440;2023-07-31T02:14:50;13.50;99.90
41592;DHT22;28026;48.562;14.440;2023-07-31T02:17:21;13.60;99.90
41592;DHT22;28026;48.562;14.440;2023-07-31T02:19:52;13.50;99.90
41592;DHT22;28026;48.562;14.440;2023-07-31T02:22:23;13.50;99.90
41592;DHT22;28026;48.562;14.440;2023-07-31T02:24:54;13.40;99.90
41592;DHT22;28026;48.562;14.440;2023-07-31T02:27:25;13.40;99.90
41592;DHT22;28026;48.562;14.440;2023-07-31T02:29:57;13.40;99.90
41592;DHT22;28026;48.562;14.440;2023-07-31T02:32:29;13.30;99.90
41592;DHT22;28026;48.562;14.440;2023-07-31T02:35:00;13.20;99.90
41592;DHT22;28026;48.562;14.440;2023-07-31T02:37:31;13.20;99.90
41592;DHT22;28026;48.562;14.440;2023-07-31T02:40:02;13.30;99.90
41592;DHT22;28026;48.562;14.440;2023-07-31T02:42:33;13.20;99.90
41592;DHT22;28026;48.562;14.440;2023-07-31T02:45:05;13.20;99.90
41592;DHT22;28026;48.562;14.440;2023-07-31T02:47:36;13.30;99.90
41592;DHT22;28026;48.562;14.440;2023-07-31T02:50:07;13.20;99.90
41592;DHT22;28026;48.562;14.440;2023-07-31T02:52:39;13.30;99.90
41592;DHT22;28026;48.562;14.440;2023-07-31T02:55:09;13.40;99.90
41592;DHT22;28026;48.562;14.440;2023-07-31T02:57:41;13.40;99.90
41592;DHT22;28026;48.562;14.440;2023-07-31T03:00:12;13.40;99.90
41592;DHT22;28026;48.562;14.440;2023-07-31T03:02:43;13.40;99.90
41592;DHT22;28026;48.562;14.440;2023-07-31T03:05:14;13.20;99.90
41592;DHT22;28026;48.562;14.440;2023-07-31T03:07:45;13.20;99.90
41592;DHT22;28026;48.562;14.440;2023-07-31T03:10:16;13.10;99.90
41592;DHT22;28026;48.562;14.440;2023-07-31T03:12:47;13.20;99.90
41592;DHT22;28026;48.562;14.440;2023-07-31T03:15:18;13.10;99.90
41592;DHT22;28026;48.562;14.440;2023-07-31T03:17:49;13.20;99.90
41592;DHT22;28026;48.562;14.440;2023-07-31T03:20:20;13.30;99.90
41592;DHT22;28026;48.562;14.440;2023-07-31T03:22:51;13.20;99.90
41592;DHT22;28026;48.562;14.440;2023-07-31T03:25:21;13.10;99.90
41592;DHT22;28026;48.562;14.440;2023-07-31T03:27:52;13.20;99.90
41592;DHT22;28026;48.562;14.440;2023-07-31T03:30:23;13.20;99.90
41592;DHT22;28026;48.562;14.440;2023-07-31T03:32:54;12.90;99.90
41592;DHT22;28026;48.562;14.440;2023-07-31T03:35:25;12.80;99.90
41592;DHT22;28026;48.562;14.440;2023-07-31T03:37:55;12.90;99.90
41592;DHT22;28026;48.562;14.440;2023-07-31T03:40:27;12.90;99.90
41592;DHT22;28026;48.562;14.440;2023-07-31T03:42:58;12.90;99.90
41592;DHT22;28026;48.562;14.440;2023-07-31T03:45:28;13.00;99.90
41592;DHT22;28026;48.562;14.440;2023-07-31T03:47:59;13.00;99.90
41592;DHT22;28026;48.562;14.440;2023-07-31T03:50:30;13.00;99.90
41592;DHT22;28026;48.562;14.440;2023-07-31T03:53:01;13.00;99.90
41592;DHT22;28026;48.562;14.440;2023-07-31T03:55:32;13.00;99.90
41592;DHT22;28026;48.562;14.440;2023-07-31T03:58:03;13.00;99.90
41592;DHT22;28026;48.562;14.440;2023-07-31T04:00:34;13.00;99.90
41592;DHT22;28026;48.562;14.440;2023-07-31T04:03:05;13.00;99.90
41592;DHT22;28026;48.562;14.440;2023-07-31T04:05:38;12.90;99.90
41592;DHT22;28026;48.562;14.440;2023-07-31T04:08:10;12.90;99.90
41592;DHT22;28026;48.562;14.440;2023-07-31T04:10:41;13.00;99.90
41592;DHT22;28026;48.562;14.440;2023-07-31T04:13:12;12.90;99.90
41592;DHT22;28026;48.562;14.440;2023-07-31T04:15:42;12.90;99.90
41592;DHT22;28026;48.562;14.440;2023-07-31T04:18:19;13.00;99.90
41592;DHT22;28026;48.562;14.440;2023-07-31T04:20:50;13.20;99.90
41592;DHT22;28026;48.562;14.440;2023-07-31T04:23:21;13.30;99.90
41592;DHT22;28026;48.562;14.440;2023-07-31T04:25:52;13.20;99.90
41592;DHT22;28026;48.562;14.440;2023-07-31T04:28:23;13.40;99.90
41592;DHT22;28026;48.562;14.440;2023-07-31T04:30:53;13.40;99.90
41592;DHT22;28026;48.562;14.440;2023-07-31T04:33:24;13.50;99.90
41592;DHT22;28026;48.562;14.440;2023-07-31T04:35:55;13.50;99.90
41592;DHT22;28026;48.562;14.440;2023-07-31T04:38:26;13.60;99.90
41592;DHT22;28026;48.562;14.440;2023-07-31T04:40:57;13.50;99.90
41592;DHT22;28026;48.562;14.440;2023-07-31T04:43:28;13.50;99.90
41592;DHT22;28026;48.562;14.440;2023-07-31T04:45:59;13.50;99.90
41592;DHT22;28026;48.562;14.440;2023-07-31T04:48:29;13.50;99.90
41592;DHT22;28026;48.562;14.440;2023-07-31T04:51:00;13.50;99.90
41592;DHT22;28026;48.562;14.440;2023-07-31T04:53:31;13.50;99.90
41592;DHT22;28026;48.562;14.440;2023-07-31T04:56:02;13.50;99.90
41592;DHT22;28026;48.562;14.440;2023-07-31T04:58:34;13.50;99.90
41592;DHT22;28026;48.562;14.440;2023-07-31T05:01:04;13.40;99.90
41592;DHT22;28026;48.562;14.440;2023-07-31T05:03:35;13.30;99.90
41592;DHT22;28026;48.562;14.440;2023-07-31T05:06:06;13.30;99.90
41592;DHT22;28026;48.562;14.440;2023-07-31T05:08:37;13.40;99.90
41592;DHT22;28026;48.562;14.440;2023-07-31T05:11:08;13.50;99.90
41592;DHT22;28026;48.562;14.440;2023-07-31T05:13:39;13.60;99.90
41592;DHT22;28026;48.562;14.440;2023-07-31T05:16:09;13.60;99.90
41592;DHT22;28026;48.562;14.440;2023-07-31T05:18:40;13.90;99.90
41592;DHT22;28026;48.562;14.440;2023-07-31T05:21:11;14.00;99.90
41592;DHT22;28026;48.562;14.440;2023-07-31T05:23:42;14.10;99.90
41592;DHT22;28026;48.562;14.440;2023-07-31T05:26:13;14.00;99.90
41592;DHT22;28026;48.562;14.440;2023-07-31T05:28:44;14.20;99.90
41592;DHT22;28026;48.562;14.440;2023-07-31T05:31:15;14.20;99.90
41592;DHT22;28026;48.562;14.440;2023-07-31T05:33:46;14.40;99.90
41592;DHT22;28026;48.562;14.440;2023-07-31T05:36:17;14.40;99.90
41592;DHT22;28026;48.562;14.440;2023-07-31T05:38:48;14.50;99.90
41592;DHT22;28026;48.562;14.440;2023-07-31T05:41:19;14.20;99.90
41592;DHT22;28026;48.562;14.440;2023-07-31T05:43:50;14.30;99.90
41592;DHT22;28026;48.562;14.440;2023-07-31T05:46:21;14.30;99.90
41592;DHT22;28026;48.562;14.440;2023-07-31T05:48:52;14.40;99.90
41592;DHT22;28026;48.562;14.440;2023-07-31T05:51:23;14.50;99.90
41592;DHT22;28026;48.562;14.440;2023-07-31T05:53:54;14.60;99.90
41592;DHT22;28026;48.562;14.440;2023-07-31T05:56:25;14.70;99.90
41592;DHT22;28026;48.562;14.440;2023-07-31T05:58:57;14.80;99.90
41592;DHT22;28026;48.562;14.440;2023-07-31T06:01:28;14.80;99.90
41592;DHT22;28026;48.562;14.440;2023-07-31T06:03:59;14.80;99.90
41592;DHT22;28026;48.562;14.440;2023-07-31T06:06:30;14.70;99.90
41592;DHT22;28026;48.562;14.440;2023-07-31T06:09:01;14.50;99.90
41592;DHT22;28026;48.562;14.440;2023-07-31T06:11:33;14.20;99.90
41592;DHT22;28026;48.562;14.440;2023-07-31T06:14:04;14.30;99.90
41592;DHT22;28026;48.562;14.440;2023-07-31T06:16:35;14.80;99.90
41592;DHT22;28026;48.562;14.440;2023-07-31T06:19:06;15.30;99.90
41592;DHT22;28026;48.562;14.440;2023-07-31T06:21:37;15.40;99.90
41592;DHT22;28026;48.562;14.440;2023-07-31T06:24:08;15.60;99.90
41592;DHT22;28026;48.562;14.440;2023-07-31T06:26:39;15.60;99.90
41592;DHT22;28026;48.562;14.440;2023-07-31T06:29:10;15.80;99.90
41592;DHT22;28026;48.562;14.440;2023-07-31T06:31:41;15.90;99.90
41592;DHT22;28026;48.562;14.440;2023-07-31T06:34:12;15.90;99.90
41592;DHT22;28026;48.562;14.440;2023-07-31T06:36:43;16.10;99.90
41592;DHT22;28026;48.562;14.440;2023-07-31T06:39:14;16.50;99.90
41592;DHT22;28026;48.562;14.440;2023-07-31T06:41:45;16.40;99.90
41592;DHT22;28026;48.562;14.440;2023-07-31T06:44:16;16.30;99.90
41592;DHT22;28026;48.562;14.440;2023-07-31T06:46:46;16.10;99.90
41592;DHT22;28026;48.562;14.440;2023-07-31T06:49:17;16.60;99.90
41592;DHT22;28026;48.562;14.440;2023-07-31T06:51:48;16.60;99.90
41592;DHT22;28026;48.562;14.440;2023-07-31T06:54:19;16.60;99.90
41592;DHT22;28026;48.562;14.440;2023-07-31T06:56:50;16.70;99.90
41592;DHT22;28026;48.562;14.440;2023-07-31T06:59:21;16.80;99.90
41592;DHT22;28026;48.562;14.440;2023-07-31T07:01:51;16.70;99.90
41592;DHT22;28026;48.562;14.440;2023-07-31T07:04:22;16.90;99.90
41592;DHT22;28026;48.562;14.440;2023-07-31T07:06:53;17.40;99.90
41592;DHT22;28026;48.562;14.440;2023-07-31T07:09:24;17.60;99.90
41592;DHT22;28026;48.562;14.440;2023-07-31T07:11:55;17.50;99.90
41592;DHT22;28026;48.562;14.440;2023-07-31T07:14:26;17.80;99.90
41592;DHT22;28026;48.562;14.440;2023-07-31T07:16:57;17.70;99.90
41592;DHT22;28026;48.562;14.440;2023-07-31T07:19:27;18.00;99.90
41592;DHT22;28026;48.562;14.440;2023-07-31T07:21:58;17.60;99.90
41592;DHT22;28026;48.562;14.440;2023-07-31T07:24:32;17.80;99.90
41592;DHT22;28026;48.562;14.440;2023-07-31T07:27:03;18.00;99.90
41592;DHT22;28026;48.562;14.440;2023-07-31T07:29:35;18.10;99.90
41592;DHT22;28026;48.562;14.440;2023-07-31T07:32:06;18.30;99.90
41592;DHT22;28026;48.562;14.440;2023-07-31T07:34:38;18.30;99.90
41592;DHT22;28026;48.562;14.440;2023-07-31T07:37:08;18.40;99.90
41592;DHT22;28026;48.562;14.440;2023-07-31T07:39:39;18.30;99.90
41592;DHT22;28026;48.562;14.440;2023-07-31T07:42:11;18.30;99.90
41592;DHT22;28026;48.562;14.440;2023-07-31T07:44:42;18.50;99.90
41592;DHT22;28026;48.562;14.440;2023-07-31T07:47:13;18.80;99.90
41592;DHT22;28026;48.562;14.440;2023-07-31T07:49:44;18.80;99.90
41592;DHT22;28026;48.562;14.440;2023-07-31T07:52:15;18.90;99.90
41592;DHT22;28026;48.562;14.440;2023-07-31T07:54:46;18.90;99.90
41592;DHT22;28026;48.562;14.440;2023-07-31T07:57:16;19.50;99.90
41592;DHT22;28026;48.562;14.440;2023-07-31T07:59:47;19.30;99.90
41592;DHT22;28026;48.562;14.440;2023-07-31T08:02:18;19.00;99.90
41592;DHT22;28026;48.562;14.440;2023-07-31T08:04:49;18.80;99.90
41592;DHT22;28026;48.562;14.440;2023-07-31T08:07:20;19.00;99.90
41592;DHT22;28026;48.562;14.440;2023-07-31T08:09:51;19.10;99.90
41592;DHT22;28026;48.562;14.440;2023-07-31T08:12:22;19.20;99.90
41592;DHT22;28026;48.562;14.440;2023-07-31T08:14:53;20.00;99.90
41592;DHT22;28026;48.562;14.440;2023-07-31T08:17:24;19.70;99.90
41592;DHT22;28026;48.562;14.440;2023-07-31T08:19:55;19.30;99.90
41592;DHT22;28026;48.562;14.440;2023-07-31T08:22:28;19.90;99.90
41592;DHT22;28026;48.562;14.440;2023-07-31T08:24:59;19.70;99.90
41592;DHT22;28026;48.562;14.440;2023-07-31T08:27:30;19.60;99.90
41592;DHT22;28026;48.562;14.440;2023-07-31T08:30:01;19.70;99.90
41592;DHT22;28026;48.562;14.440;2023-07-31T08:32:31;19.60;99.90
41592;DHT22;28026;48.562;14.440;2023-07-31T08:35:02;20.00;99.90
41592;DHT22;28026;48.562;14.440;2023-07-31T08:37:34;19.30;99.90
41592;DHT22;28026;48.562;14.440;2023-07-31T08:40:05;19.50;99.90
41592;DHT22;28026;48.562;14.440;2023-07-31T08:42:47;20.30;99.90
41592;DHT22;28026;48.562;14.440;2023-07-31T08:45:26;20.30;99.90
41592;DHT22;28026;48.562;14.440;2023-07-31T08:47:59;20.40;99.90
41592;DHT22;28026;48.562;14.440;2023-07-31T08:50:30;21.30;99.90
41592;DHT22;28026;48.562;14.440;2023-07-31T08:53:02;20.80;99.90
41592;DHT22;28026;48.562;14.440;2023-07-31T08:55:33;20.20;99.90
41592;DHT22;28026;48.562;14.440;2023-07-31T08:58:05;20.10;99.90
41592;DHT22;28026;48.562;14.440;2023-07-31T09:00:36;20.00;99.90
41592;DHT22;28026;48.562;14.440;2023-07-31T09:03:34;19.60;99.90
41592;DHT22;28026;48.562;14.440;2023-07-31T09:06:07;20.10;99.90
41592;DHT22;28026;48.562;14.440;2023-07-31T09:08:41;19.90;99.90
41592;DHT22;28026;48.562;14.440;2023-07-31T09:11:13;19.80;99.90
41592;DHT22;28026;48.562;14.440;2023-07-31T09:13:46;20.20;99.90
41592;DHT22;28026;48.562;14.440;2023-07-31T09:16:18;19.90;99.90
41592;DHT22;28026;48.562;14.440;2023-07-31T09:18:56;19.30;99.90
41592;DHT22;28026;48.562;14.440;2023-07-31T09:21:28;19.70;99.90
41592;DHT22;28026;48.562;14.440;2023-07-31T09:23:59;19.70;99.90
41592;DHT22;28026;48.562;14.440;2023-07-31T09:26:34;19.50;99.90
41592;DHT22;28026;48.562;14.440;2023-07-31T09:29:19;19.20;99.90
41592;DHT22;28026;48.562;14.440;2023-07-31T09:31:50;20.00;99.90
41592;DHT22;28026;48.562;14.440;2023-07-31T09:34:30;20.80;99.90
41592;DHT22;28026;48.562;14.440;2023-07-31T09:37:11;20.80;99.90
41592;DHT22;28026;48.562;14.440;2023-07-31T09:39:48;20.80;99.90
41592;DHT22;28026;48.562;14.440;2023-07-31T09:42:26;20.50;99.90
41592;DHT22;28026;48.562;14.440;2023-07-31T09:45:08;20.00;99.90
41592;DHT22;28026;48.562;14.440;2023-07-31T09:47:46;19.70;99.90
41592;DHT22;28026;48.562;14.440;2023-07-31T09:50:23;19.70;99.90
41592;DHT22;28026;48.562;14.440;2023-07-31T09:52:55;19.80;99.90
41592;DHT22;28026;48.562;14.440;2023-07-31T09:55:26;19.70;99.90
41592;DHT22;28026;48.562;14.440;2023-07-31T09:58:03;20.60;99.90
41592;DHT22;28026;48.562;14.440;2023-07-31T10:00:38;20.90;99.90
41592;DHT22;28026;48.562;14.440;2023-07-31T10:03:10;20.60;99.90
41592;DHT22;28026;48.562;14.440;2023-07-31T10:05:47;20.50;99.90
41592;DHT22;28026;48.562;14.440;2023-07-31T10:08:27;20.40;99.90
41592;DHT22;28026;48.562;14.440;2023-07-31T10:11:03;19.90;99.90
41592;DHT22;28026;48.562;14.440;2023-07-31T10:13:37;20.70;99.90
41592;DHT22;28026;48.562;14.440;2023-07-31T10:16:09;21.30;99.90
41592;DHT22;28026;48.562;14.440;2023-07-31T10:18:42;21.40;99.90
41592;DHT22;28026;48.562;14.440;2023-07-31T10:21:15;21.70;99.90
41592;DHT22;28026;48.562;14.440;2023-07-31T10:23:47;20.50;99.90
41592;DHT22;28026;48.562;14.440;2023-07-31T10:26:20;20.80;99.90
41592;DHT22;28026;48.562;14.440;2023-07-31T10:28:54;21.50;99.90
41592;DHT22;28026;48.562;14.440;2023-07-31T10:31:27;21.40;99.90
41592;DHT22;28026;48.562;14.440;2023-07-31T10:33:59;21.30;99.90
41592;DHT22;28026;48.562;14.440;2023-07-31T10:36:33;21.40;99.90
41592;DHT22;28026;48.562;14.440;2023-07-31T10:39:04;21.30;99.90
41592;DHT22;28026;48.562;14.440;2023-07-31T10:42:11;21.10;99.90
41592;DHT22;28026;48.562;14.440;2023-07-31T10:44:44;20.70;99.90
41592;DHT22;28026;48.562;14.440;2023-07-31T10:47:17;20.90;99.90
41592;DHT22;28026;48.562;14.440;2023-07-31T10:49:49;21.00;99.90
41592;DHT22;28026;48.562;14.440;2023-07-31T10:52:21;21.20;99.90
41592;DHT22;28026;48.562;14.440;2023-07-31T10:55:15;21.50;99.90
41592;DHT22;28026;48.562;14.440;2023-07-31T10:58:13;21.70;99.90
41592;DHT22;28026;48.562;14.440;2023-07-31T11:00:55;22.00;99.90
41592;DHT22;28026;48.562;14.440;2023-07-31T11:03:43;23.20;99.90
41592;DHT22;28026;48.562;14.440;2023-07-31T11:06:22;23.20;99.90
41592;DHT22;28026;48.562;14.440;2023-07-31T11:08:53;23.30;99.90
41592;DHT22;28026;48.562;14.440;2023-07-31T11:11:24;22.90;99.90
41592;DHT22;28026;48.562;14.440;2023-07-31T11:13:55;22.10;99.90
41592;DHT22;28026;48.562;14.440;2023-07-31T11:16:26;21.40;99.90
41592;DHT22;28026;48.562;14.440;2023-07-31T11:18:57;21.50;99.90
41592;DHT22;28026;48.562;14.440;2023-07-31T11:21:28;22.10;99.90
41592;DHT22;28026;48.562;14.440;2023-07-31T11:23:59;21.80;99.90
41592;DHT22;28026;48.562;14.440;2023-07-31T11:26:30;21.30;99.90
41592;DHT22;28026;48.562;14.440;2023-07-31T11:29:01;21.40;99.90
41592;DHT22;28026;48.562;14.440;2023-07-31T11:31:32;21.20;99.90
41592;DHT22;28026;48.562;14.440;2023-07-31T11:34:09;20.70;99.90
41592;DHT22;28026;48.562;14.440;2023-07-31T11:36:40;20.60;99.90
41592;DHT22;28026;48.562;14.440;2023-07-31T11:39:11;20.90;99.90
41592;DHT22;28026;48.562;14.440;2023-07-31T11:41:42;20.90;99.90
41592;DHT22;28026;48.562;14.440;2023-07-31T11:44:13;20.70;99.90
41592;DHT22;28026;48.562;14.440;2023-07-31T11:46:44;20.50;99.90
41592;DHT22;28026;48.562;14.440;2023-07-31T11:49:15;20.50;99.90
41592;DHT22;28026;48.562;14.440;2023-07-31T11:51:46;20.20;99.90
41592;DHT22;28026;48.562;14.440;2023-07-31T11:54:17;20.40;99.90
41592;DHT22;28026;48.562;14.440;2023-07-31T11:56:49;20.20;99.90
41592;DHT22;28026;48.562;14.440;2023-07-31T11:59:20;19.90;99.90
41592;DHT22;28026;48.562;14.440;2023-07-31T12:01:52;19.80;99.90
41592;DHT22;28026;48.562;14.440;2023-07-31T12:04:24;19.60;99.90
41592;DHT22;28026;48.562;14.440;2023-07-31T12:06:56;19.80;99.90
41592;DHT22;28026;48.562;14.440;2023-07-31T12:09:27;20.30;99.90
41592;DHT22;28026;48.562;14.440;2023-07-31T12:11:58;20.40;99.90
41592;DHT22;28026;48.562;14.440;2023-07-31T12:14:30;20.20;99.90
41592;DHT22;28026;48.562;14.440;2023-07-31T12:17:04;20.30;99.90
41592;DHT22;28026;48.562;14.440;2023-07-31T12:19:37;20.50;99.90
41592;DHT22;28026;48.562;14.440;2023-07-31T12:22:15;20.40;99.90
41592;DHT22;28026;48.562;14.440;2023-07-31T12:24:47;20.30;99.90
41592;DHT22;28026;48.562;14.440;2023-07-31T12:27:17;20.30;99.90
41592;DHT22;28026;48.562;14.440;2023-07-31T12:29:49;19.80;99.90
41592;DHT22;28026;48.562;14.440;2023-07-31T12:32:23;19.90;99.90
41592;DHT22;28026;48.562;14.440;2023-07-31T12:34:59;20.40;99.90
41592;DHT22;28026;48.562;14.440;2023-07-31T12:37:32;20.80;99.90
41592;DHT22;28026;48.562;14.440;2023-07-31T12:40:04;20.60;99.90
41592;DHT22;28026;48.562;14.440;2023-07-31T12:42:35;20.60;99.90
41592;DHT22;28026;48.562;14.440;2023-07-31T12:45:06;20.40;99.90
41592;DHT22;28026;48.562;14.440;2023-07-31T12:47:38;20.30;99.90
41592;DHT22;28026;48.562;14.440;2023-07-31T12:50:09;21.00;99.90
41592;DHT22;28026;48.562;14.440;2023-07-31T12:52:40;21.10;99.90
41592;DHT22;28026;48.562;14.440;2023-07-31T12:55:11;21.70;99.90
41592;DHT22;28026;48.562;14.440;2023-07-31T12:57:42;21.80;99.90
41592;DHT22;28026;48.562;14.440;2023-07-31T13:00:13;22.30;99.90
41592;DHT22;28026;48.562;14.440;2023-07-31T13:02:44;22.90;99.90
41592;DHT22;28026;48.562;14.440;2023-07-31T13:05:15;22.50;99.90
41592;DHT22;28026;48.562;14.440;2023-07-31T13:07:47;22.30;99.90
41592;DHT22;28026;48.562;14.440;2023-07-31T13:10:18;22.30;99.90
41592;DHT22;28026;48.562;14.440;2023-07-31T13:12:50;22.00;99.90
41592;DHT22;28026;48.562;14.440;2023-07-31T13:15:21;21.60;99.90
41592;DHT22;28026;48.562;14.440;2023-07-31T13:17:52;20.70;99.90
41592;DHT22;28026;48.562;14.440;2023-07-31T13:20:23;20.70;99.90
41592;DHT22;28026;48.562;14.440;2023-07-31T13:22:54;20.80;99.90
41592;DHT22;28026;48.562;14.440;2023-07-31T13:25:25;21.80;99.90
41592;DHT22;28026;48.562;14.440;2023-07-31T13:27:56;23.30;99.90
41592;DHT22;28026;48.562;14.440;2023-07-31T13:30:27;23.30;99.90
41592;DHT22;28026;48.562;14.440;2023-07-31T13:32:58;23.20;99.90
41592;DHT22;28026;48.562;14.440;2023-07-31T13:35:29;23.70;99.90
41592;DHT22;28026;48.562;14.440;2023-07-31T13:38:01;21.70;99.90
41592;DHT22;28026;48.562;14.440;2023-07-31T13:40:32;22.30;99.90
41592;DHT22;28026;48.562;14.440;2023-07-31T13:43:03;22.40;99.90
41592;DHT22;28026;48.562;14.440;2023-07-31T13:45:34;21.80;99.90
41592;DHT22;28026;48.562;14.440;2023-07-31T13:48:05;22.50;99.90
41592;DHT22;28026;48.562;14.440;2023-07-31T13:50:36;23.30;99.90
41592;DHT22;28026;48.562;14.440;2023-07-31T13:53:07;22.80;99.90
41592;DHT22;28026;48.562;14.440;2023-07-31T13:55:38;22.40;99.90
41592;DHT22;28026;48.562;14.440;2023-07-31T13:58:09;22.50;99.90
41592;DHT22;28026;48.562;14.440;2023-07-31T14:00:39;22.40;99.90
41592;DHT22;28026;48.562;14.440;2023-07-31T14:03:10;21.80;99.90
41592;DHT22;28026;48.562;14.440;2023-07-31T14:05:41;22.50;99.90
41592;DHT22;28026;48.562;14.440;2023-07-31T14:08:12;22.90;99.90
41592;DHT22;28026;48.562;14.440;2023-07-31T14:10:43;22.00;99.90
41592;DHT22;28026;48.562;14.440;2023-07-31T14:13:14;22.10;99.90
41592;DHT22;28026;48.562;14.440;2023-07-31T14:15:45;22.30;99.90
41592;DHT22;28026;48.562;14.440;2023-07-31T14:18:16;22.40;99.90
41592;DHT22;28026;48.562;14.440;2023-07-31T14:20:48;21.50;99.90
41592;DHT22;28026;48.562;14.440;2023-07-31T14:23:19;21.60;99.90
41592;DHT22;28026;48.562;14.440;2023-07-31T14:25:50;22.10;99.90
41592;DHT22;28026;48.562;14.440;2023-07-31T14:28:21;22.30;99.90
41592;DHT22;28026;48.562;14.440;2023-07-31T14:30:52;22.30;99.90
41592;DHT22;28026;48.562;14.440;2023-07-31T14:33:23;23.40;99.90
41592;DHT22;28026;48.562;14.440;2023-07-31T14:35:54;22.80;99.90
41592;DHT22;28026;48.562;14.440;2023-07-31T14:38:24;22.30;99.90
41592;DHT22;28026;48.562;14.440;2023-07-31T14:40:56;22.90;99.90
41592;DHT22;28026;48.562;14.440;2023-07-31T14:43:26;23.30;99.90
41592;DHT22;28026;48.562;14.440;2023-07-31T14:45:57;23.40;99.90
41592;DHT22;28026;48.562;14.440;2023-07-31T14:48:30;22.20;99.90
41592;DHT22;28026;48.562;14.440;2023-07-31T14:51:01;21.10;99.90
41592;DHT22;28026;48.562;14.440;2023-07-31T14:53:32;21.20;99.90
41592;DHT22;28026;48.562;14.440;2023-07-31T14:56:02;21.80;99.90
41592;DHT22;28026;48.562;14.440;2023-07-31T14:58:33;23.10;99.90
41592;DHT22;28026;48.562;14.440;2023-07-31T15:01:04;23.00;99.90
41592;DHT22;28026;48.562;14.440;2023-07-31T15:03:35;22.40;99.90
41592;DHT22;28026;48.562;14.440;2023-07-31T15:06:06;22.30;99.90
41592;DHT22;28026;48.562;14.440;2023-07-31T15:08:38;22.60;99.90
41592;DHT22;28026;48.562;14.440;2023-07-31T15:11:09;22.10;99.90
41592;DHT22;28026;48.562;14.440;2023-07-31T15:13:40;21.30;99.90
41592;DHT22;28026;48.562;14.440;2023-07-31T15:16:12;20.80;99.90
41592;DHT22;28026;48.562;14.440;2023-07-31T15:18:43;20.70;99.90
41592;DHT22;28026;48.562;14.440;2023-07-31T15:21:14;20.80;99.90
41592;DHT22;28026;48.562;14.440;2023-07-31T15:23:45;21.00;99.90
41592;DHT22;28026;48.562;14.440;2023-07-31T15:26:16;21.40;99.90
41592;DHT22;28026;48.562;14.440;2023-07-31T15:28:53;21.30;99.90
41592;DHT22;28026;48.562;14.440;2023-07-31T15:31:32;21.10;99.90
41592;DHT22;28026;48.562;14.440;2023-07-31T15:34:03;21.10;99.90
41592;DHT22;28026;48.562;14.440;2023-07-31T15:36:33;21.20;99.90
41592;DHT22;28026;48.562;14.440;2023-07-31T15:39:04;21.90;99.90
41592;DHT22;28026;48.562;14.440;2023-07-31T15:41:39;21.90;99.90
41592;DHT22;28026;48.562;14.440;2023-07-31T15:44:10;21.80;99.90
41592;DHT22;28026;48.562;14.440;2023-07-31T15:46:41;21.80;99.90
41592;DHT22;28026;48.562;14.440;2023-07-31T15:49:12;22.10;99.90
41592;DHT22;28026;48.562;14.440;2023-07-31T15:51:43;22.00;99.90
41592;DHT22;28026;48.562;14.440;2023-07-31T15:54:14;22.00;99.90